Time;durP1;ratioP1;P1;durP2;ratioP2;P2;SDS_P1;SDS_P2;PMS_P1;PMS_P2;Temp;Humidity;BMP_temperature;BMP_pressure;BME280_temperature;BME280_humidity;BME280_pressure;Samples;Min_cycle;Max_cycle;Signal;HPM_P1;HPM_P2
2022/03/27 00:02:07;;;;;;;7.50;4.30;;;;;;;8.15;84.33;103090.44;5029739;28;20402;-85
2022/03/27 00:04:33;;;;;;;10.60;5.20;;;;;;;8.12;83.90;103093.25;5047863;28;20040;-87
2022/03/27 00:06:58;;;;;;;8.60;5.15;;;;;;;8.10;84.59;103092.41;5050482;28;20114;-83
2022/03/27 00:09:23;;;;;;;9.43;5.43;;;;;;;8.11;84.87;103099.59;5042940;28;20477;-82
2022/03/27 00:11:49;;;;;;;10.60;5.40;;;;;;;8.12;84.59;103099.56;5048784;28;20032;-86
2022/03/27 00:14:14;;;;;;;8.77;4.97;;;;;;;8.08;85.34;103089.72;5036998;28;20026;-83
2022/03/27 00:16:40;;;;;;;10.27;5.28;;;;;;;8.12;85.42;103091.44;5038912;28;20037;-83
2022/03/27 00:19:06;;;;;;;9.32;4.78;;;;;;;8.06;84.21;103090.69;5044434;28;20029;-84
2022/03/27 00:21:32;;;;;;;10.73;5.20;;;;;;;8.07;84.05;103100.63;5029448;28;20476;-83
2022/03/27 00:23:57;;;;;;;8.38;5.13;;;;;;;8.04;84.99;103092.56;5050108;28;20140;-86
2022/03/27 00:26:23;;;;;;;8.77;5.65;;;;;;;7.97;83.76;103094.53;5032720;28;20031;-82
2022/03/27 00:28:49;;;;;;;12.93;4.90;;;;;;;7.94;85.18;103091.91;5032966;28;20124;-85
2022/03/27 00:31:15;;;;;;;7.13;5.05;;;;;;;7.97;85.95;103101.75;5045103;28;20041;-82
2022/03/27 00:33:42;;;;;;;13.55;5.03;;;;;;;7.92;84.53;103100.06;5043889;28;20029;-85
2022/03/27 00:36:10;;;;;;;7.88;4.45;;;;;;;7.93;84.54;103104.56;5041053;28;20538;-83
2022/03/27 00:38:36;;;;;;;8.07;4.60;;;;;;;7.86;84.39;103096.63;5065981;28;20033;-83
2022/03/27 00:41:02;;;;;;;11.32;5.95;;;;;;;7.82;85.21;103082.25;5048342;28;20061;-83
2022/03/27 00:43:28;;;;;;;9.88;4.97;;;;;;;7.85;82.33;103097.56;5049357;28;20076;-85
2022/03/27 00:45:54;;;;;;;10.68;5.05;;;;;;;7.86;85.11;103097.50;5031133;28;20541;-83
2022/03/27 00:48:21;;;;;;;12.98;5.78;;;;;;;7.80;86.09;103086.84;5030463;28;20457;-83
2022/03/27 00:50:52;;;;;;;10.30;5.40;;;;;;;7.76;84.51;103092.38;5032785;28;20028;-83
2022/03/27 00:53:18;;;;;;;7.55;5.03;;;;;;;7.71;85.52;103091.59;5049094;28;20400;-84
2022/03/27 00:55:48;;;;;;;8.75;5.05;;;;;;;7.68;85.78;103098.84;5028804;28;20430;-81
2022/03/27 00:58:14;;;;;;;8.45;4.97;;;;;;;7.67;86.49;103091.66;5048713;28;20488;-82
2022/03/27 01:00:45;;;;;;;8.10;5.22;;;;;;;7.65;83.46;103098.94;5047086;28;20396;-82
2022/03/27 01:03:14;;;;;;;9.45;4.88;;;;;;;7.56;81.84;103085.63;5028771;28;20052;-84
2022/03/27 01:05:41;;;;;;;7.60;3.95;;;;;;;7.59;82.24;103092.75;5030509;28;20040;-87
2022/03/27 01:08:09;;;;;;;8.32;4.43;;;;;;;7.55;82.00;103089.22;5020656;28;20032;-85
2022/03/27 01:10:34;;;;;;;6.35;4.25;;;;;;;7.51;80.58;103086.66;5046512;28;20123;-83
2022/03/27 01:13:19;;;;;;;9.18;4.28;;;;;;;7.40;80.66;103081.47;5048407;28;20123;-83
2022/03/27 01:15:56;;;;;;;11.73;4.90;;;;;;;7.31;81.69;103082.56;5043237;28;20534;-83
2022/03/27 01:18:22;;;;;;;10.43;4.53;;;;;;;7.30;82.29;103090.75;5027877;28;20086;-85
2022/03/27 01:20:48;;;;;;;10.45;4.72;;;;;;;7.28;81.52;103090.78;5042589;28;20460;-83
2022/03/27 01:23:14;;;;;;;9.48;4.57;;;;;;;7.24;82.01;103086.34;5050096;28;20462;-88
2022/03/27 01:25:44;;;;;;;9.57;5.22;;;;;;;7.23;83.15;103089.06;5044210;28;20484;-83
2022/03/27 01:28:13;;;;;;;10.50;5.40;;;;;;;7.19;83.77;103084.69;5045637;28;20489;-85
2022/03/27 01:30:39;;;;;;;11.18;5.35;;;;;;;7.13;84.93;103072.16;5044103;28;20056;-87
2022/03/27 01:33:05;;;;;;;8.95;5.57;;;;;;;7.13;84.34;103080.28;5042524;28;20570;-86
2022/03/27 01:35:32;;;;;;;8.75;4.97;;;;;;;7.11;84.36;103076.72;5035405;28;20108;-84
2022/03/27 01:37:58;;;;;;;10.55;6.15;;;;;;;7.09;86.43;103079.47;5043595;28;20037;-83
2022/03/27 01:40:23;;;;;;;9.85;5.28;;;;;;;7.10;83.89;103083.97;5031065;28;20044;-83
2022/03/27 01:42:52;;;;;;;8.85;5.03;;;;;;;7.05;82.41;103077.75;5048412;28;20476;-86
2022/03/27 01:45:18;;;;;;;11.43;5.45;;;;;;;7.07;85.79;103081.31;5047871;28;20091;-86
2022/03/27 01:47:43;;;;;;;7.45;4.47;;;;;;;7.01;83.04;103076.03;5049069;28;20414;-87
2022/03/27 01:50:09;;;;;;;9.25;4.95;;;;;;;6.96;83.99;103086.06;5046092;28;20036;-83
2022/03/27 01:52:35;;;;;;;7.82;5.32;;;;;;;6.96;83.26;103086.06;5028614;28;20043;-83
2022/03/27 01:55:00;;;;;;;8.27;4.55;;;;;;;6.94;83.97;103089.72;5031152;28;20496;-83
2022/03/27 01:57:26;;;;;;;10.10;5.40;;;;;;;6.85;83.08;103078.19;5018715;28;20039;-86
2022/03/27 01:59:51;;;;;;;10.65;5.30;;;;;;;6.83;84.04;103071.91;5046384;28;20033;-85
2022/03/27 02:02:23;;;;;;;9.63;5.07;;;;;;;6.81;84.38;103073.75;5024887;28;20031;-87
2022/03/27 02:04:50;;;;;;;8.40;5.07;;;;;;;6.78;84.44;103079.22;5044702;28;20033;-88
2022/03/27 02:07:15;;;;;;;11.73;6.55;;;;;;;6.83;86.34;103087.25;5048246;28;20139;-84
2022/03/27 02:09:41;;;;;;;8.95;5.18;;;;;;;6.80;84.89;103081.88;5030555;28;20056;-83
2022/03/27 02:12:07;;;;;;;7.75;5.00;;;;;;;6.78;83.34;103081.03;5048964;28;20044;-85
2022/03/27 02:14:32;;;;;;;12.45;6.18;;;;;;;6.78;84.14;103081.03;5027820;28;20025;-84
2022/03/27 02:16:57;;;;;;;13.60;7.07;;;;;;;6.82;86.86;103083.66;5029049;28;20068;-83
2022/03/27 02:19:23;;;;;;;9.07;5.70;;;;;;;6.77;85.72;103079.28;5046235;28;20132;-88
2022/03/27 02:21:48;;;;;;;15.02;8.02;;;;;;;6.79;87.96;103088.22;5047812;28;20119;-83
2022/03/27 02:24:13;;;;;;;11.98;7.78;;;;;;;6.78;87.41;103079.22;5027442;28;20087;-86
2022/03/27 02:26:44;;;;;;;15.00;8.60;;;;;;;6.82;88.67;103089.06;5044730;28;20550;-83
2022/03/27 02:29:12;;;;;;;13.27;8.70;;;;;;;6.83;89.39;103085.44;5050319;28;20037;-84
2022/03/27 02:31:38;;;;;;;16.52;10.07;;;;;;;6.85;89.93;103086.31;5030044;28;20037;-84
2022/03/27 02:34:03;;;;;;;16.25;9.63;;;;;;;6.85;89.84;103075.50;5041675;28;20129;-88
2022/03/27 02:36:29;;;;;;;28.52;11.70;;;;;;;6.93;90.73;103080.72;5044941;28;20150;-84
2022/03/27 02:38:54;;;;;;;26.75;11.27;;;;;;;6.94;90.68;103073.47;5028313;28;20048;-83
2022/03/27 02:41:20;;;;;;;22.83;12.38;;;;;;;7.01;91.13;103084.16;5036069;28;20970;-83
2022/03/27 02:43:45;;;;;;;23.08;12.77;;;;;;;7.04;91.42;103086.81;5027529;28;20026;-87
2022/03/27 02:46:10;;;;;;;23.02;12.65;;;;;;;7.00;91.62;103076.97;5043070;28;20032;-89
2022/03/27 02:48:36;;;;;;;24.52;11.93;;;;;;;7.05;91.56;103085.00;5041806;28;20056;-84
2022/03/27 02:51:01;;;;;;;26.70;13.20;;;;;;;7.05;92.30;103087.69;5048507;28;20125;-83
2022/03/27 02:53:27;;;;;;;26.25;12.38;;;;;;;7.01;91.72;103073.34;5030512;28;20025;-89
2022/03/27 02:55:52;;;;;;;27.65;12.23;;;;;;;7.01;91.25;103077.84;5040207;28;20124;-87
2022/03/27 02:58:17;;;;;;;25.10;12.07;;;;;;;6.99;91.65;103079.69;5030104;28;20493;-88
2022/03/27 03:00:43;;;;;;;23.85;12.57;;;;;;;6.99;91.63;103077.88;5043281;28;20453;-88
2022/03/27 03:03:10;;;;;;;28.25;12.35;;;;;;;7.01;91.50;103080.56;5045567;28;20426;-86
2022/03/27 03:05:41;;;;;;;22.50;11.55;;;;;;;6.98;91.77;103070.69;5037071;28;20396;-83
2022/03/27 03:08:11;;;;;;;19.80;11.80;;;;;;;7.00;91.97;103082.38;5031853;28;20025;-85
2022/03/27 03:10:38;;;;;;;22.17;12.65;;;;;;;7.01;91.86;103076.03;5045794;28;20074;-86
2022/03/27 03:13:05;;;;;;;22.33;12.32;;;;;;;6.99;91.89;103087.81;5044032;28;20033;-87
2022/03/27 03:15:31;;;;;;;24.13;12.70;;;;;;;7.02;91.41;103075.09;5022304;28;20538;-88
2022/03/27 03:17:56;;;;;;;29.63;12.45;;;;;;;7.03;91.69;103073.28;5046998;28;20036;-88
2022/03/27 03:20:22;;;;;;;22.27;12.77;;;;;;;7.03;91.88;103068.75;5045701;28;20044;-88
2022/03/27 03:22:48;;;;;;;22.38;12.48;;;;;;;7.00;91.87;103065.25;5047654;28;20456;-84
2022/03/27 03:25:13;;;;;;;24.80;12.95;;;;;;;7.01;92.28;103064.31;5045506;28;20060;-86
2022/03/27 03:27:38;;;;;;;22.45;12.55;;;;;;;6.96;91.38;103056.31;5030740;28;20128;-86
2022/03/27 03:30:05;;;;;;;23.42;12.75;;;;;;;6.98;91.83;103051.75;5026802;28;20045;-84
2022/03/27 03:32:30;;;;;;;23.00;12.32;;;;;;;7.03;92.16;103052.53;5030379;28;20633;-84
2022/03/27 03:34:56;;;;;;;25.20;13.32;;;;;;;7.05;92.11;103057.94;5036122;28;20017;-83
2022/03/27 03:37:23;;;;;;;20.48;12.77;;;;;;;7.02;92.15;103050.75;5037373;28;20717;-84
2022/03/27 03:39:48;;;;;;;26.23;12.93;;;;;;;7.08;92.20;103058.72;5042384;28;20037;-85
2022/03/27 03:42:14;;;;;;;22.85;13.98;;;;;;;7.10;92.16;103053.28;5031102;28;20416;-84
2022/03/27 03:44:41;;;;;;;29.27;13.15;;;;;;;7.09;91.70;103049.69;5030008;28;20040;-86
2022/03/27 03:47:07;;;;;;;23.55;13.10;;;;;;;7.14;91.72;103058.59;5046292;28;20041;-85
2022/03/27 03:49:32;;;;;;;25.73;13.35;;;;;;;7.14;91.29;103055.00;5041057;28;20060;-84
2022/03/27 03:51:57;;;;;;;18.65;10.40;;;;;;;7.06;91.64;103052.47;5045648;28;20455;-86
2022/03/27 03:54:23;;;;;;;23.90;12.52;;;;;;;7.05;91.95;103047.09;5026182;28;20496;-84
2022/03/27 03:56:48;;;;;;;26.48;13.13;;;;;;;7.04;91.98;103058.81;5031247;28;20037;-86
2022/03/27 03:59:13;;;;;;;22.80;12.05;;;;;;;7.02;91.79;103053.47;5029976;28;20697;-89
2022/03/27 04:01:39;;;;;;;22.70;13.00;;;;;;;7.04;91.89;103058.81;5037722;28;20148;-84
2022/03/27 04:04:05;;;;;;;25.02;11.75;;;;;;;7.01;91.74;103064.31;5046770;28;20037;-85
2022/03/27 04:06:31;;;;;;;23.27;12.35;;;;;;;6.98;92.22;103065.28;5047171;28;20136;-84
2022/03/27 04:08:56;;;;;;;23.80;12.80;;;;;;;6.96;92.52;103060.84;5049246;28;20108;-84
2022/03/27 04:11:22;;;;;;;25.40;13.15;;;;;;;6.96;92.17;103072.53;5051108;28;20079;-84
2022/03/27 04:13:47;;;;;;;22.98;12.82;;;;;;;7.03;92.09;103062.47;5033324;28;20087;-86
2022/03/27 04:16:13;;;;;;;21.27;11.80;;;;;;;7.00;92.26;103063.44;5049128;28;20049;-84
2022/03/27 04:18:39;;;;;;;21.13;12.48;;;;;;;7.01;92.51;103067.91;5045527;28;20041;-86
2022/03/27 04:21:05;;;;;;;23.95;12.98;;;;;;;6.98;92.60;103059.84;5029135;28;20041;-87
2022/03/27 04:23:30;;;;;;;24.77;12.75;;;;;;;7.04;92.48;103053.41;5050434;28;20498;-86
2022/03/27 04:25:56;;;;;;;26.65;13.07;;;;;;;7.10;92.21;103062.31;5040561;28;20628;-86
2022/03/27 04:28:21;;;;;;;23.00;13.13;;;;;;;7.12;92.14;103064.97;5048956;28;20035;-87
2022/03/27 04:30:46;;;;;;;24.98;13.07;;;;;;;7.11;92.02;103064.06;5050974;28;20041;-88
2022/03/27 04:33:12;;;;;;;25.38;14.38;;;;;;;7.11;92.20;103055.97;5050957;28;20059;-84
2022/03/27 04:35:38;;;;;;;25.15;12.98;;;;;;;7.13;92.49;103062.25;5040938;28;20040;-84
2022/03/27 04:38:04;;;;;;;28.98;15.30;;;;;;;7.10;92.38;103051.47;5053941;28;20429;-83
2022/03/27 04:40:29;;;;;;;26.67;13.57;;;;;;;7.17;92.02;103065.75;5051244;28;20438;-84
2022/03/27 04:42:55;;;;;;;25.80;13.75;;;;;;;7.12;92.03;103063.16;5034160;28;20373;-84
2022/03/27 04:45:20;;;;;;;26.35;13.98;;;;;;;7.15;92.30;103073.03;5048008;28;20033;-87
2022/03/27 04:47:45;;;;;;;24.92;12.95;;;;;;;7.08;91.88;103061.44;5027412;28;20082;-88
2022/03/27 04:50:11;;;;;;;26.08;12.30;;;;;;;7.04;91.64;103065.16;5040065;28;20480;-89
2022/03/27 04:52:37;;;;;;;25.13;11.43;;;;;;;6.95;91.99;103059.94;5024994;28;20088;-85
2022/03/27 04:55:05;;;;;;;27.15;14.45;;;;;;;6.89;92.55;103060.94;5043372;28;20040;-90
2022/03/27 04:57:39;;;;;;;22.48;12.45;;;;;;;6.90;92.68;103067.25;5032331;28;20033;-89
2022/03/27 05:00:09;;;;;;;29.63;13.27;;;;;;;6.82;93.02;103061.13;5031656;28;20526;-87
2022/03/27 05:02:35;;;;;;;25.33;13.68;;;;;;;6.80;93.06;103068.38;5049375;28;20032;-84
2022/03/27 05:05:00;;;;;;;36.05;14.10;;;;;;;6.79;93.22;103070.19;5046305;28;20140;-87
2022/03/27 05:07:25;;;;;;;24.80;13.18;;;;;;;6.79;93.24;103067.47;5049601;28;20114;-85
2022/03/27 05:09:51;;;;;;;26.90;14.00;;;;;;;6.82;93.17;103078.25;5031084;28;20372;-86
2022/03/27 05:12:16;;;;;;;26.92;14.43;;;;;;;6.85;93.58;103083.59;5044962;28;20606;-84
2022/03/27 05:14:41;;;;;;;32.50;16.15;;;;;;;6.82;93.17;103078.25;5032089;28;20403;-84
2022/03/27 05:17:07;;;;;;;31.90;14.57;;;;;;;6.85;93.08;103089.03;5046073;28;20094;-85
2022/03/27 05:19:32;;;;;;;35.30;14.00;;;;;;;6.81;93.54;103083.69;5040444;28;20045;-87
2022/03/27 05:21:57;;;;;;;34.25;12.75;;;;;;;6.77;93.11;103085.56;5045313;28;20040;-86
2022/03/27 05:24:23;;;;;;;44.42;13.32;;;;;;;6.67;93.15;103070.47;5046488;28;20029;-90
2022/03/27 05:26:49;;;;;;;25.80;12.45;;;;;;;6.68;93.17;103076.75;5042504;28;20147;-83
2022/03/27 05:29:14;;;;;;;58.92;18.92;;;;;;;6.68;93.53;103088.47;5030369;28;20043;-88
2022/03/27 05:31:40;;;;;;;27.30;14.02;;;;;;;6.65;93.69;103088.50;5044572;28;20035;-89
2022/03/27 05:34:05;;;;;;;32.22;14.02;;;;;;;6.61;93.70;103084.06;5027862;28;20048;-84
2022/03/27 05:36:31;;;;;;;31.80;13.35;;;;;;;6.60;92.91;103090.41;5028719;28;20062;-84
2022/03/27 05:38:56;;;;;;;32.72;13.60;;;;;;;6.45;93.42;103080.78;5031361;28;20131;-88
2022/03/27 05:41:22;;;;;;;29.73;13.07;;;;;;;6.46;93.28;103092.50;5044079;28;20078;-85
2022/03/27 05:43:48;;;;;;;36.40;14.05;;;;;;;6.45;93.67;103104.25;5048642;28;20037;-84
2022/03/27 05:46:13;;;;;;;22.92;11.88;;;;;;;6.41;92.81;103100.69;5039176;28;20038;-85
2022/03/27 05:48:38;;;;;;;27.80;12.30;;;;;;;6.39;93.19;103098.03;5019663;28;20400;-88
2022/03/27 05:51:04;;;;;;;23.00;10.48;;;;;;;6.41;92.91;103102.50;5022863;28;20025;-85
2022/03/27 05:53:30;;;;;;;25.90;11.27;;;;;;;6.35;93.09;103106.22;5044139;28;20068;-86
2022/03/27 05:55:57;;;;;;;24.77;11.77;;;;;;;6.38;93.29;103108.84;5044917;28;20071;-84
2022/03/27 05:58:23;;;;;;;26.98;11.68;;;;;;;6.36;93.26;103106.19;5029910;28;20029;-85
2022/03/27 06:00:49;;;;;;;24.25;11.77;;;;;;;6.34;93.05;103110.75;5044589;28;20122;-84
2022/03/27 06:03:15;;;;;;;26.10;11.35;;;;;;;6.34;93.26;103120.63;5039482;28;20056;-88
2022/03/27 06:05:41;;;;;;;29.95;12.73;;;;;;;6.30;93.45;103110.84;5041213;28;20040;-84
2022/03/27 06:08:06;;;;;;;24.80;11.32;;;;;;;6.27;93.37;103105.47;5025613;28;20462;-87
2022/03/27 06:10:33;;;;;;;34.72;12.75;;;;;;;6.32;92.83;103115.28;5058157;28;20116;-85
2022/03/27 06:12:59;;;;;;;26.52;10.82;;;;;;;6.28;93.32;103116.25;5036851;28;20038;-87
2022/03/27 06:15:26;;;;;;;26.10;12.27;;;;;;;6.29;93.54;103114.44;5035166;28;20116;-85
2022/03/27 06:17:53;;;;;;;35.30;13.50;;;;;;;6.31;93.71;103118.91;5025931;28;20115;-86
2022/03/27 06:20:21;;;;;;;29.00;13.20;;;;;;;6.30;93.48;103116.25;5027267;28;20032;-86
2022/03/27 06:22:47;;;;;;;28.80;12.10;;;;;;;6.31;93.69;103118.00;5059946;28;20048;-84
2022/03/27 06:25:18;;;;;;;31.10;14.50;;;;;;;6.40;94.09;103125.97;5026236;28;20038;-86
2022/03/27 06:27:44;;;;;;;33.38;13.70;;;;;;;6.45;93.77;103132.16;5047784;28;20037;-88
2022/03/27 06:30:12;;;;;;;37.40;13.45;;;;;;;6.43;93.39;103122.28;5029363;28;20373;-85
2022/03/27 06:32:38;;;;;;;35.65;13.50;;;;;;;6.43;93.27;103127.69;5045161;28;20033;-89
2022/03/27 06:35:05;;;;;;;31.63;13.43;;;;;;;6.41;93.60;103127.75;5042002;28;20032;-86
2022/03/27 06:37:32;;;;;;;30.15;13.55;;;;;;;6.45;93.88;103123.16;5038049;28;20059;-86
2022/03/27 06:39:57;;;;;;;30.17;12.48;;;;;;;6.47;94.08;103130.31;5042819;28;20029;-86
2022/03/27 06:42:25;;;;;;;40.20;15.20;;;;;;;6.47;93.60;103133.03;5040988;28;20975;-84
2022/03/27 06:44:54;;;;;;;34.92;13.63;;;;;;;6.47;93.23;103135.72;5040728;28;20028;-84
2022/03/27 06:47:20;;;;;;;35.10;14.00;;;;;;;6.46;93.79;103120.44;5038559;28;20077;-85
2022/03/27 06:49:47;;;;;;;38.63;15.15;;;;;;;6.54;93.85;103132.00;5039008;28;20021;-85
2022/03/27 06:52:13;;;;;;;34.30;13.82;;;;;;;6.59;93.94;103131.91;5045764;28;20093;-87
2022/03/27 06:54:39;;;;;;;32.65;14.15;;;;;;;6.63;93.42;103130.94;5042242;28;20120;-86
2022/03/27 06:57:04;;;;;;;34.33;12.52;;;;;;;6.63;93.47;103120.13;5041571;28;20128;-85
2022/03/27 07:03:01;;;;;;;30.85;12.20;;;;;;;6.68;93.24;103125.44;5041420;28;20044;-87
2022/03/27 07:05:04;;;;;;;33.25;13.07;;;;;;;6.69;92.77;103122.69;5037316;28;20045;-84
2022/03/27 07:07:30;;;;;;;42.13;15.98;;;;;;;6.69;92.70;103121.81;5040574;28;20040;-88
2022/03/27 07:09:55;;;;;;;33.58;13.73;;;;;;;6.68;92.77;103125.44;5039208;28;20415;-86
2022/03/27 07:12:21;;;;;;;40.15;16.45;;;;;;;6.67;93.31;103127.25;5026355;28;20025;-86
2022/03/27 07:14:46;;;;;;;37.65;13.48;;;;;;;6.71;92.68;103130.78;5045093;28;20036;-85
2022/03/27 07:17:17;;;;;;;38.22;15.63;;;;;;;6.73;92.80;103127.13;5028988;28;20557;-85
2022/03/27 07:19:46;;;;;;;40.80;15.30;;;;;;;6.61;92.70;103109.31;5028458;28;20045;-85
2022/03/27 07:22:11;;;;;;;44.92;16.70;;;;;;;6.72;92.68;103130.75;5043637;28;20044;-88
2022/03/27 07:24:37;;;;;;;48.65;16.38;;;;;;;6.69;93.07;103122.69;5027780;28;20029;-84
2022/03/27 07:27:02;;;;;;;41.75;15.40;;;;;;;6.80;92.79;103131.47;5044211;28;20029;-84
2022/03/27 07:29:30;;;;;;;36.92;14.73;;;;;;;6.83;92.59;103128.72;5025924;28;20028;-87
2022/03/27 07:31:56;;;;;;;34.10;15.15;;;;;;;6.84;92.63;103125.09;5042792;28;20049;-84
2022/03/27 07:34:22;;;;;;;39.17;14.68;;;;;;;6.82;92.36;103126.94;5043960;28;20043;-88
2022/03/27 07:36:47;;;;;;;41.53;15.30;;;;;;;6.80;92.29;103120.66;5033227;28;20116;-91
2022/03/27 07:39:13;;;;;;;38.35;14.85;;;;;;;6.79;91.82;103128.81;5030468;28;20468;-84
2022/03/27 07:41:41;;;;;;;30.92;13.18;;;;;;;6.82;92.77;103123.34;5044706;28;20025;-83
2022/03/27 07:44:07;;;;;;;36.85;14.52;;;;;;;6.85;92.42;103125.97;5028465;28;20063;-84
2022/03/27 07:46:33;;;;;;;34.45;13.35;;;;;;;6.87;92.31;103119.63;5044391;28;20506;-86
2022/03/27 07:48:59;;;;;;;34.13;14.48;;;;;;;6.85;92.25;103120.56;5040625;28;20033;-87
2022/03/27 07:51:28;;;;;;;35.78;14.93;;;;;;;6.87;91.92;103129.56;5043161;28;20052;-85
2022/03/27 07:53:53;;;;;;;41.40;15.40;;;;;;;6.84;91.89;103129.59;5047799;28;20192;-87
2022/03/27 07:56:19;;;;;;;38.60;15.73;;;;;;;6.80;91.89;103119.75;5023222;28;20021;-85
2022/03/27 07:58:45;;;;;;;40.67;15.48;;;;;;;6.84;92.11;103118.78;5044265;28;20091;-86
2022/03/27 08:01:14;;;;;;;37.80;14.23;;;;;;;6.95;92.29;103133.00;5043387;28;20506;-85
2022/03/27 08:03:43;;;;;;;40.10;15.73;;;;;;;7.00;91.51;103127.50;5042641;28;20025;-85
2022/03/27 08:06:08;;;;;;;38.28;15.43;;;;;;;6.95;91.62;103114.06;5030900;28;20061;-85
2022/03/27 08:08:34;;;;;;;40.42;15.70;;;;;;;7.00;91.35;103132.91;5025113;28;20087;-84
2022/03/27 08:10:59;;;;;;;35.60;15.43;;;;;;;6.92;91.31;103121.34;5037459;28;20079;-89
2022/03/27 08:13:25;;;;;;;37.72;15.10;;;;;;;6.91;91.65;103123.16;5027405;28;20043;-89
2022/03/27 08:15:51;;;;;;;36.17;15.02;;;;;;;6.89;91.67;103120.47;5042602;28;20032;-87
2022/03/27 08:18:16;;;;;;;37.35;14.45;;;;;;;6.88;91.11;103112.41;5047510;28;20048;-87
2022/03/27 08:20:42;;;;;;;35.20;15.18;;;;;;;6.94;91.51;103120.38;5027794;28;20408;-85
2022/03/27 08:23:07;;;;;;;37.38;16.50;;;;;;;7.04;91.12;103121.06;5052234;28;20044;-86
2022/03/27 08:28:19;;;;;;;32.63;14.20;;;;;;;7.19;91.30;103123.47;5046516;28;20033;-85
2022/03/27 08:30:45;;;;;;;33.42;15.73;;;;;;;7.20;90.55;103127.06;5043817;28;20043;-85
2022/03/27 08:33:12;;;;;;;33.90;14.65;;;;;;;7.22;90.86;103126.09;5031360;28;20037;-88
2022/03/27 08:35:41;;;;;;;31.83;12.93;;;;;;;7.13;90.50;103107.34;5021989;28;20108;-86
2022/03/27 08:38:08;;;;;;;67.25;17.73;;;;;;;7.34;90.89;103138.47;5049534;28;20037;-85
2022/03/27 08:40:34;;;;;;;37.90;15.90;;;;;;;7.44;90.39;103129.22;5043033;28;20033;-87
2022/03/27 08:43:01;;;;;;;32.65;14.35;;;;;;;7.53;89.42;103137.13;5035976;28;20067;-85
2022/03/27 08:45:28;;;;;;;32.30;13.70;;;;;;;7.48;89.16;103125.53;5025414;28;20037;-86
2022/03/27 08:47:54;;;;;;;29.75;13.90;;;;;;;7.54;89.02;103133.50;5026048;28;20116;-85
2022/03/27 08:50:36;;;;;;;29.77;14.40;;;;;;;7.60;88.77;103132.47;5048268;28;20029;-85
2022/03/27 08:53:06;;;;;;;33.37;14.10;;;;;;;7.67;87.13;103132.28;5030318;28;20033;-87
2022/03/27 08:55:57;;;;;;;27.67;12.65;;;;;;;7.64;87.54;103129.66;5044602;28;20108;-85
2022/03/27 08:58:45;;;;;;;27.65;12.27;;;;;;;7.74;87.32;103134.84;5040579;28;20045;-86
2022/03/27 09:01:11;;;;;;;27.42;12.25;;;;;;;7.77;87.66;103130.25;5021407;28;20523;-85
2022/03/27 09:03:37;;;;;;;23.88;10.93;;;;;;;7.75;86.54;103140.25;5045581;28;20175;-86
2022/03/27 09:06:06;;;;;;;23.20;10.50;;;;;;;7.72;86.64;103140.31;5034356;28;20078;-85
2022/03/27 09:08:32;;;;;;;23.85;10.70;;;;;;;7.69;86.33;103137.66;5049020;28;20432;-88
2022/03/27 09:10:58;;;;;;;21.77;11.10;;;;;;;7.76;86.41;103142.03;5043178;28;20039;-88
2022/03/27 09:13:25;;;;;;;26.90;11.32;;;;;;;7.95;86.26;103149.72;5028911;28;20032;-88
2022/03/27 09:16:05;;;;;;;23.38;12.35;;;;;;;8.05;84.92;103157.56;5030641;28;20484;-87
2022/03/27 09:18:52;;;;;;;24.15;10.57;;;;;;;8.10;85.16;103141.19;5042475;28;20068;-88
2022/03/27 09:21:20;;;;;;;103.82;14.23;;;;;;;8.12;84.66;103145.66;5046627;28;20582;-86
2022/03/27 09:23:54;;;;;;;22.30;10.80;;;;;;;8.10;84.54;103152.03;5026338;28;20175;-83
2022/03/27 09:26:20;;;;;;;20.27;10.13;;;;;;;8.25;85.05;103145.31;5045102;28;20033;-85
2022/03/27 09:28:53;;;;;;;21.92;10.95;;;;;;;8.51;84.72;103150.13;5047451;28;20385;-86
2022/03/27 09:31:19;;;;;;;20.42;10.68;;;;;;;8.73;83.56;103154.03;5027683;28;20373;-85
2022/03/27 09:33:52;;;;;;;21.10;10.27;;;;;;;8.85;82.85;103147.34;5042925;28;20048;-85
2022/03/27 09:36:23;;;;;;;22.55;11.00;;;;;;;8.95;81.28;103146.16;5024460;28;20030;-85
2022/03/27 09:39:16;;;;;;;23.48;10.43;;;;;;;9.04;81.85;103142.28;5041151;28;20487;-85
2022/03/27 09:41:58;;;;;;;21.30;10.13;;;;;;;9.18;81.81;103146.38;5045653;28;20078;-85
2022/03/27 09:44:31;;;;;;;20.20;11.13;;;;;;;9.34;79.88;103135.06;5048494;28;20144;-85
2022/03/27 09:46:57;;;;;;;22.83;11.43;;;;;;;9.54;80.84;103137.16;5046581;28;20046;-89
2022/03/27 09:49:44;;;;;;;27.77;12.15;;;;;;;9.75;80.51;103130.16;5041569;28;20447;-89
2022/03/27 09:52:11;;;;;;;26.55;11.77;;;;;;;10.06;78.30;103130.03;5046167;28;20072;-85
2022/03/27 09:54:55;;;;;;;23.48;11.23;;;;;;;10.17;78.87;103128.72;5047434;28;20055;-85
2022/03/27 09:57:25;;;;;;;24.02;11.60;;;;;;;10.46;77.48;103130.47;5043475;28;20120;-86
2022/03/27 09:59:51;;;;;;;21.88;11.35;;;;;;;10.76;75.66;103104.91;5045305;28;20530;-84
2022/03/27 10:02:23;;;;;;;18.38;10.45;;;;;;;10.97;73.64;103115.91;5046867;28;20463;-87
2022/03/27 10:05:03;;;;;;;21.95;11.57;;;;;;;10.87;76.97;103110.88;5029095;28;20044;-85
2022/03/27 10:07:38;;;;;;;20.83;11.30;;;;;;;11.37;74.28;103106.16;5044543;28;20041;-89
2022/03/27 10:10:05;;;;;;;21.42;11.18;;;;;;;11.58;73.11;103099.00;5042721;28;20044;-86
2022/03/27 10:12:34;;;;;;;19.40;10.82;;;;;;;11.70;70.60;103097.59;5043415;28;20118;-85
2022/03/27 10:15:03;;;;;;;21.58;11.50;;;;;;;12.08;74.39;103100.59;5046343;28;20024;-88
2022/03/27 10:17:31;;;;;;;19.10;11.35;;;;;;;12.33;69.88;103098.59;5028387;28;20044;-86
2022/03/27 10:20:03;;;;;;;20.95;11.50;;;;;;;12.53;68.82;103094.97;5041510;28;20025;-84
2022/03/27 10:22:29;;;;;;;18.42;10.43;;;;;;;12.28;68.70;103084.25;5041088;28;20056;-85
2022/03/27 10:24:56;;;;;;;20.10;11.57;;;;;;;12.14;67.74;103092.16;5044211;28;20048;-88
2022/03/27 10:27:21;;;;;;;20.52;11.68;;;;;;;12.09;68.78;103091.47;5041482;28;20048;-85
2022/03/27 10:29:47;;;;;;;19.30;11.35;;;;;;;12.06;68.49;103088.84;5028229;28;20036;-85
2022/03/27 10:32:14;;;;;;;22.00;12.63;;;;;;;12.37;70.76;103083.84;5026266;28;20469;-88
2022/03/27 10:34:48;;;;;;;20.92;11.68;;;;;;;12.74;67.30;103076.72;5031170;28;20021;-86
2022/03/27 10:37:40;;;;;;;23.70;11.77;;;;;;;13.15;70.05;103082.09;5038466;28;20228;-89
2022/03/27 10:40:28;;;;;;;21.15;11.85;;;;;;;13.75;67.84;103070.03;5008755;28;20068;-90
2022/03/27 10:43:28;;;;;;;22.20;10.90;;;;;;;13.90;67.56;103070.25;5040554;28;20072;-85
2022/03/27 10:46:23;;;;;;;20.67;11.35;;;;;;;14.33;65.24;103065.28;5057840;28;20048;-85
2022/03/27 10:48:51;;;;;;;21.85;11.27;;;;;;;14.43;63.86;103056.50;5060800;28;20037;-84
2022/03/27 10:51:26;;;;;;;20.38;12.35;;;;;;;14.49;62.37;103058.91;5033592;28;20029;-88
2022/03/27 10:54:12;;;;;;;20.80;11.80;;;;;;;14.56;62.83;103051.28;5045507;28;20032;-88
2022/03/27 10:56:43;;;;;;;20.83;12.18;;;;;;;14.46;62.24;103052.72;5042878;28;20025;-85
2022/03/27 10:59:24;;;;;;;18.07;11.17;;;;;;;14.19;61.54;103058.69;5043645;28;20044;-85
2022/03/27 11:01:51;;;;;;;16.55;10.55;;;;;;;14.40;60.97;103053.03;5039452;28;20045;-85
2022/03/27 11:04:19;;;;;;;18.00;10.65;;;;;;;14.46;61.17;103055.47;5040057;28;20052;-85
2022/03/27 11:07:12;;;;;;;20.83;12.15;;;;;;;14.73;62.41;103048.47;5040487;28;20061;-86
2022/03/27 11:09:39;;;;;;;21.75;11.57;;;;;;;15.30;61.34;103048.97;5059738;28;20034;-84
2022/03/27 11:12:06;;;;;;;19.40;10.95;;;;;;;15.49;57.44;103043.28;5019049;28;20049;-86
2022/03/27 11:14:50;;;;;;;19.80;10.88;;;;;;;15.44;59.65;103037.19;5041244;28;20063;-86
2022/03/27 11:17:16;;;;;;;22.52;11.65;;;;;;;15.22;58.74;103039.41;5025151;28;20090;-85
2022/03/27 11:19:46;;;;;;;18.48;10.60;;;;;;;15.35;59.83;103040.47;5022894;28;20968;-86
2022/03/27 11:22:53;;;;;;;17.20;10.50;;;;;;;15.49;58.86;103029.56;5029014;28;20074;-85
2022/03/27 11:25:31;;;;;;;16.00;10.10;;;;;;;15.45;59.69;103032.59;5048967;28;20120;-88
2022/03/27 11:28:05;;;;;;;20.52;10.77;;;;;;;15.86;57.26;103021.94;5040560;28;20118;-85
2022/03/27 11:30:32;;;;;;;19.40;11.35;;;;;;;16.30;56.61;103019.22;5038785;28;20033;-85